Pembroke, NC

1:10 PM EDT on April 28, 2017 (GMT -0400)
Hunter's Run | | Change Station
Active Advisory: Flood Warning

Elev 175 ft 34.66 °N, 79.18 °W | Updated 14 minutes ago

Partly Cloudy
Partly Cloudy
86.4 °F
Feels Like 94 °F
N
1.0
Wind Variable Wind from NW
Gusts 9.0 mph

Today
High -- | Low -- °F
--% Chance of Precip.
Yesterday
High -- | Low -- °F
Precip. -- in
Pressure 30.06 in
Visibility 10.0 miles
Clouds Few 3300 ft
Heat Index 94 °F
Dew Point 74 °F
Humidity 66%
Rainfall 0.00 in
Snow Depth Not available.
6:29 AM 7:59 PM
Waxing Crescent, 7% visible
METAR KLBT 281654Z AUTO 17007KT 140V210 10SM FEW033 29/22 A3007 RMK AO2 SLP179 T02940222
Pressure 30.06 in
Visibility 10.0 miles
Clouds Few 3300 ft
Heat Index 94 °F
Dew Point 74 °F
Humidity 66%
Rainfall 0.00 in
Snow Depth Not available.
6:29 AM 7:59 PM
Waxing Crescent, 7% visible
METAR KLBT 281654Z AUTO 17007KT 140V210 10SM FEW033 29/22 A3007 RMK AO2 SLP179 T02940222

Get Your Daily Forecast Email!

Thanks for signing up!

Be on the lookout for a verification email in your inbox.

You'll start receiving severe weather alerts in your inbox..

×

10-Day Weather Forecast

Almanac

Astronomy

Apr. 28, 2017 Rise Set
Actual Time
Civil Twilight
Nautical Twilight
Astronomical Twilight
Moon
Length of Visible Light
Length of Day
Tomorrow will be .
, % of the Moon is Illuminated

Today's Extremes

State Highs State Lows

Community

WunderPhotos

WunderBlog® & News

Nearby

Air Quality

  Air Quality AQ Index Pollutant
Not available.

Snow Depth

Station Depth Elevation

Earthquake Activity

City Distance Mag. Time & Date
Minimum magnitude displayed is 2.5.

Coastal Water Temperatures

Place Temperature

Stations

Nearby Weather Stations

Station Location Temp. Windchill Dew Point Humidity Wind Precip. Elev Updated Type
                   

Watches & Warnings

Flood Warning
Issued: 10:33 AM EDT Apr. 28, 2017 – National Weather Service

... Flood Warning now in effect until Wednesday afternoon...
the Flood Warning continues for
the lumber near Lumberton.
* Until Wednesday afternoon.
* At 7:00 am Friday the stage was 12.98 feet.
* Flood stage is 13.0 feet.
* Minor flooding is forecast.
* Forecast... the river will rise to near 13.2 feet by Monday
morning. The river will fall below flood stage by early Wednesday
morning.
* Impact... at 13.0 feet... low land flooding will occur along the
river. The flood waters may affect some residential property as
water backs up into the drainage ditches in the city.


Lat... Lon 3467 7916 3468 7904 3457 7891 3452 7899
          3461 7907 3458 7915